Time;durP1;ratioP1;P1;durP2;ratioP2;P2;SDS_P1;SDS_P2;PMS_P1;PMS_P2;Temp;Humidity;BMP_temperature;BMP_pressure;BME280_temperature;BME280_humidity;BME280_pressure;Samples;Min_cycle;Max_cycle;Signal;HPM_P1;HPM_P2
2022/12/02 00:01:16;;;;;;;127.20;53.33;;;1.60;99.90;;;;;;5048285;27;20107;-55
2022/12/02 00:03:42;;;;;;;137.43;55.08;;;1.60;99.90;;;;;;5031131;28;20142;-57
2022/12/02 00:06:31;;;;;;;141.25;56.42;;;1.60;99.90;;;;;;5029819;28;20061;-53
2022/12/02 00:09:17;;;;;;;138.60;56.83;;;1.60;99.90;;;;;;5039533;28;20021;-54
2022/12/02 00:11:44;;;;;;;138.38;56.53;;;1.60;99.90;;;;;;5047802;27;20119;-52
2022/12/02 00:14:25;;;;;;;139.68;55.95;;;1.60;99.90;;;;;;5049439;28;20025;-56
2022/12/02 00:16:52;;;;;;;147.80;57.78;;;1.50;99.90;;;;;;5048040;27;20040;-54
2022/12/02 00:19:18;;;;;;;156.70;60.35;;;1.50;99.90;;;;;;5046966;28;20027;-56
2022/12/02 00:21:43;;;;;;;153.63;56.45;;;1.50;99.90;;;;;;5030954;28;20055;-55
2022/12/02 00:24:09;;;;;;;169.30;63.35;;;1.50;99.90;;;;;;5029528;28;20030;-54
2022/12/02 00:26:35;;;;;;;137.80;54.85;;;1.50;99.90;;;;;;5029743;28;20032;-55
2022/12/02 00:29:01;;;;;;;146.13;57.60;;;1.50;99.90;;;;;;5044282;28;20033;-56
2022/12/02 00:31:27;;;;;;;139.85;53.67;;;1.50;99.90;;;;;;5045796;28;20055;-54
2022/12/02 00:33:53;;;;;;;138.80;57.22;;;1.50;99.90;;;;;;5029284;28;20088;-55
2022/12/02 00:36:19;;;;;;;131.60;52.63;;;1.50;99.90;;;;;;5045699;28;20025;-55
2022/12/02 00:38:44;;;;;;;134.65;55.58;;;1.50;99.90;;;;;;5037042;28;20415;-55
2022/12/02 00:41:10;;;;;;;143.32;57.47;;;1.50;99.90;;;;;;5028634;28;20032;-53
2022/12/02 00:46:32;;;;;;;119.75;51.38;;;1.50;99.90;;;;;;5047355;27;20414;-54
2022/12/02 00:49:04;;;;;;;143.95;54.38;;;1.60;99.90;;;;;;5034491;28;20062;-55
2022/12/02 00:51:30;;;;;;;154.25;59.00;;;1.60;99.90;;;;;;5045191;27;20029;-54
2022/12/02 00:53:56;;;;;;;135.88;55.90;;;1.50;99.90;;;;;;5046515;28;20413;-56
2022/12/02 00:56:21;;;;;;;145.82;54.03;;;1.50;99.90;;;;;;5047224;28;20029;-53
2022/12/02 00:58:47;;;;;;;133.05;52.35;;;1.50;99.90;;;;;;5048381;27;20056;-56
2022/12/02 01:01:13;;;;;;;160.30;57.08;;;1.50;99.90;;;;;;5048858;28;20081;-55
2022/12/02 01:03:38;;;;;;;140.88;55.58;;;1.50;99.90;;;;;;5030500;28;20033;-56
2022/12/02 01:06:04;;;;;;;199.18;53.78;;;1.50;99.90;;;;;;5030005;28;20064;-57
2022/12/02 01:08:30;;;;;;;140.80;58.67;;;1.40;99.90;;;;;;5043664;28;20479;-55
2022/12/02 01:10:56;;;;;;;172.45;57.38;;;1.40;99.90;;;;;;5048135;28;20045;-55
2022/12/02 01:13:23;;;;;;;160.35;58.67;;;1.40;99.90;;;;;;5032804;28;20072;-56
2022/12/02 01:15:49;;;;;;;135.40;53.78;;;1.40;99.90;;;;;;5028941;28;20025;-55
2022/12/02 01:18:16;;;;;;;136.35;56.17;;;1.50;99.90;;;;;;5029850;28;20056;-56
2022/12/02 01:20:41;;;;;;;174.60;58.63;;;1.40;99.90;;;;;;5032448;28;20040;-55
2022/12/02 01:23:07;;;;;;;155.80;55.90;;;1.40;99.90;;;;;;5033120;28;20026;-55
2022/12/02 01:25:33;;;;;;;159.77;58.25;;;1.40;99.90;;;;;;5047681;28;20380;-55
2022/12/02 01:27:59;;;;;;;145.70;55.42;;;1.40;99.90;;;;;;5042977;28;20118;-55
2022/12/02 01:30:25;;;;;;;155.60;59.15;;;1.40;99.90;;;;;;5028769;28;20061;-55
2022/12/02 01:32:50;;;;;;;158.18;58.17;;;1.40;99.90;;;;;;5040247;28;20068;-55
2022/12/02 01:35:16;;;;;;;157.95;58.10;;;1.50;99.90;;;;;;5048335;28;20017;-54
2022/12/02 01:37:42;;;;;;;147.25;56.78;;;1.50;99.90;;;;;;5048263;27;20389;-56
2022/12/02 01:40:10;;;;;;;171.82;57.85;;;1.40;99.90;;;;;;5048368;27;20065;-54
2022/12/02 01:42:37;;;;;;;166.90;57.00;;;1.40;99.90;;;;;;5046860;27;20017;-53
2022/12/02 01:45:03;;;;;;;152.85;55.42;;;1.40;99.90;;;;;;5034900;28;20025;-56
2022/12/02 01:47:29;;;;;;;154.18;57.80;;;1.50;99.90;;;;;;5029411;28;20025;-54
2022/12/02 01:49:55;;;;;;;173.30;58.25;;;1.60;99.90;;;;;;5028435;28;20048;-55
2022/12/02 01:52:21;;;;;;;189.55;60.40;;;1.50;99.90;;;;;;5032654;28;20025;-55
2022/12/02 01:54:47;;;;;;;197.65;66.15;;;1.50;99.90;;;;;;5031479;28;20026;-54
2022/12/02 01:57:14;;;;;;;194.88;59.63;;;1.40;99.90;;;;;;5047916;28;20547;-55
2022/12/02 01:59:41;;;;;;;198.10;62.03;;;1.40;99.90;;;;;;5048065;27;20618;-55
2022/12/02 02:02:27;;;;;;;180.90;59.75;;;1.40;99.90;;;;;;5042120;27;20034;-56
2022/12/02 02:04:56;;;;;;;189.60;62.35;;;1.40;99.90;;;;;;5028004;28;20025;-55
2022/12/02 02:07:21;;;;;;;183.02;61.40;;;1.40;99.90;;;;;;5029847;28;20021;-56
2022/12/02 02:09:47;;;;;;;196.63;60.22;;;1.40;99.90;;;;;;5031443;28;20044;-56
2022/12/02 02:12:13;;;;;;;206.98;60.90;;;1.30;99.90;;;;;;5032822;28;20113;-55
2022/12/02 02:14:39;;;;;;;196.68;58.60;;;1.40;99.90;;;;;;5031775;28;20372;-53
2022/12/02 02:17:04;;;;;;;283.45;63.83;;;1.40;99.90;;;;;;5044629;27;20033;-53
2022/12/02 02:19:30;;;;;;;308.77;60.33;;;1.40;99.90;;;;;;5034876;28;20438;-55
2022/12/02 02:21:57;;;;;;;196.75;57.85;;;1.40;99.90;;;;;;5037820;28;20025;-54
2022/12/02 02:24:23;;;;;;;294.08;60.75;;;1.40;99.90;;;;;;5049404;28;20510;-54
2022/12/02 02:26:49;;;;;;;275.02;57.75;;;1.40;99.90;;;;;;5041231;28;20425;-57
2022/12/02 02:29:15;;;;;;;441.80;67.10;;;1.30;99.90;;;;;;5037246;28;20026;-54
2022/12/02 02:31:41;;;;;;;248.63;56.63;;;1.30;99.90;;;;;;5032656;28;20032;-56
2022/12/02 02:34:07;;;;;;;274.48;59.38;;;1.30;99.90;;;;;;5042289;27;20036;-57
2022/12/02 02:36:33;;;;;;;316.83;62.85;;;1.30;99.90;;;;;;5031527;28;20557;-53
2022/12/02 02:38:59;;;;;;;251.40;59.97;;;1.30;99.90;;;;;;5031177;28;20022;-57
2022/12/02 02:41:26;;;;;;;146.77;55.80;;;1.20;99.90;;;;;;5031159;28;20029;-56
2022/12/02 02:43:52;;;;;;;266.05;59.88;;;1.30;99.90;;;;;;5031230;28;20040;-55
2022/12/02 02:46:17;;;;;;;290.35;60.10;;;1.30;99.90;;;;;;5032094;28;20021;-56
2022/12/02 02:48:44;;;;;;;264.20;58.40;;;1.20;99.90;;;;;;5031161;28;20030;-56
2022/12/02 02:51:11;;;;;;;271.77;58.78;;;1.20;99.90;;;;;;5032252;28;20083;-54
2022/12/02 02:53:36;;;;;;;273.35;57.92;;;1.20;99.90;;;;;;5049062;27;20040;-55
2022/12/02 02:56:03;;;;;;;203.60;58.05;;;1.20;99.90;;;;;;5033755;28;20022;-56
2022/12/02 02:58:31;;;;;;;291.08;58.25;;;1.10;99.90;;;;;;5035459;28;20401;-57
2022/12/02 03:01:01;;;;;;;278.30;62.45;;;1.10;99.90;;;;;;5048669;28;20025;-55
2022/12/02 03:03:32;;;;;;;182.48;57.13;;;1.10;99.90;;;;;;5050417;28;20021;-54
2022/12/02 03:06:00;;;;;;;267.73;60.55;;;1.20;99.90;;;;;;5047879;28;20038;-55
2022/12/02 03:08:27;;;;;;;258.90;57.20;;;1.20;99.90;;;;;;5030786;28;20067;-55
2022/12/02 03:10:54;;;;;;;244.32;57.83;;;1.10;99.90;;;;;;5030507;28;20562;-55
2022/12/02 03:13:20;;;;;;;240.07;61.05;;;1.10;99.90;;;;;;5031950;28;20033;-51
2022/12/02 03:15:46;;;;;;;242.52;61.90;;;1.10;99.90;;;;;;5030600;28;20453;-51
2022/12/02 03:18:12;;;;;;;180.88;57.60;;;1.10;99.90;;;;;;5034154;28;20013;-55
2022/12/02 03:20:38;;;;;;;192.25;59.58;;;1.10;99.90;;;;;;5040784;27;20025;-56
2022/12/02 03:23:04;;;;;;;200.70;58.28;;;1.10;99.90;;;;;;5062135;28;20034;-53
2022/12/02 03:25:30;;;;;;;178.25;59.17;;;1.10;99.90;;;;;;5046680;28;20108;-55
2022/12/02 03:27:56;;;;;;;204.70;58.33;;;1.20;99.90;;;;;;5031596;28;20112;-55
2022/12/02 03:30:22;;;;;;;217.30;59.35;;;1.20;99.90;;;;;;5030708;28;20025;-53
2022/12/02 03:32:47;;;;;;;227.18;54.63;;;1.10;99.90;;;;;;5032637;27;20097;-56
2022/12/02 03:35:13;;;;;;;269.98;59.05;;;1.10;99.90;;;;;;5035696;28;20642;-56
2022/12/02 03:37:39;;;;;;;176.27;55.03;;;1.10;99.90;;;;;;5050074;27;20036;-54
2022/12/02 03:40:06;;;;;;;315.52;60.25;;;1.20;99.90;;;;;;5050215;28;20065;-55
2022/12/02 03:42:32;;;;;;;305.63;63.35;;;1.10;99.90;;;;;;5049764;27;20029;-55
2022/12/02 03:44:57;;;;;;;205.57;57.53;;;1.10;99.90;;;;;;5050112;28;20025;-53
2022/12/02 03:47:23;;;;;;;310.48;60.78;;;1.00;99.90;;;;;;5039964;27;20124;-54
2022/12/02 03:49:49;;;;;;;200.75;56.90;;;1.10;99.90;;;;;;5039334;28;20040;-54
2022/12/02 03:52:15;;;;;;;276.70;59.20;;;1.00;99.90;;;;;;5049827;27;20029;-56
2022/12/02 03:54:40;;;;;;;225.82;56.70;;;1.00;99.90;;;;;;5036726;28;20593;-52
2022/12/02 03:57:07;;;;;;;228.23;58.72;;;1.00;99.90;;;;;;5044179;28;20035;-54
2022/12/02 03:59:33;;;;;;;339.42;63.78;;;1.00;99.90;;;;;;5049726;27;20033;-53
2022/12/02 04:01:59;;;;;;;340.38;68.13;;;1.00;99.90;;;;;;5049732;28;20027;-52
2022/12/02 04:04:24;;;;;;;242.63;61.15;;;0.90;99.90;;;;;;5049601;28;20025;-52
2022/12/02 04:06:50;;;;;;;239.15;59.78;;;1.00;99.90;;;;;;5039572;28;20082;-54
2022/12/02 04:09:16;;;;;;;262.35;63.35;;;1.00;99.90;;;;;;5044728;27;20026;-54
2022/12/02 04:11:41;;;;;;;174.82;57.38;;;1.00;99.90;;;;;;5049876;28;20049;-56
2022/12/02 04:14:07;;;;;;;240.27;58.70;;;1.00;99.90;;;;;;5046428;28;20037;-53
2022/12/02 04:16:33;;;;;;;303.40;60.20;;;1.00;99.90;;;;;;5049160;28;20036;-53
2022/12/02 04:18:58;;;;;;;432.48;73.10;;;1.00;99.90;;;;;;5039112;27;20035;-55
2022/12/02 04:21:24;;;;;;;327.85;62.92;;;1.00;99.90;;;;;;5029679;28;20039;-55
2022/12/02 04:23:51;;;;;;;251.77;61.33;;;1.00;99.90;;;;;;5029432;28;20110;-55
2022/12/02 04:26:17;;;;;;;299.50;62.30;;;1.00;99.90;;;;;;5037334;28;20025;-54
2022/12/02 04:28:43;;;;;;;227.38;57.65;;;1.00;99.90;;;;;;5034489;28;20033;-54
2022/12/02 04:31:09;;;;;;;231.50;56.25;;;1.00;99.90;;;;;;5048767;28;20040;-56
2022/12/02 04:33:34;;;;;;;163.63;54.42;;;0.90;99.90;;;;;;5047690;28;20582;-55
2022/12/02 04:36:00;;;;;;;298.88;61.38;;;1.00;99.90;;;;;;5049060;28;20107;-54
2022/12/02 04:38:26;;;;;;;252.25;61.05;;;0.90;99.90;;;;;;5047663;28;20025;-55
2022/12/02 04:40:51;;;;;;;174.43;57.85;;;0.80;99.90;;;;;;5047975;28;20036;-56
2022/12/02 04:43:17;;;;;;;302.50;61.75;;;0.80;99.90;;;;;;5048913;27;20036;-55
2022/12/02 04:45:42;;;;;;;324.85;61.70;;;0.80;99.90;;;;;;5049135;28;20556;-55
2022/12/02 04:48:08;;;;;;;290.88;64.57;;;0.80;99.90;;;;;;5045572;28;20028;-55
2022/12/02 04:50:34;;;;;;;231.57;56.88;;;0.90;99.90;;;;;;5029820;28;20017;-52
2022/12/02 04:52:59;;;;;;;128.38;52.38;;;0.80;99.90;;;;;;5043133;28;20105;-56
2022/12/02 04:55:25;;;;;;;262.77;59.10;;;0.90;99.90;;;;;;5034172;28;20025;-51
2022/12/02 04:57:51;;;;;;;439.95;71.75;;;0.80;99.90;;;;;;5048578;28;20021;-54
2022/12/02 05:00:18;;;;;;;239.18;57.85;;;0.80;99.90;;;;;;5048831;27;20356;-52
2022/12/02 05:02:43;;;;;;;211.88;59.42;;;0.80;99.90;;;;;;5048570;28;20044;-55
2022/12/02 05:05:10;;;;;;;347.30;61.72;;;0.70;99.90;;;;;;5047367;28;20025;-51
2022/12/02 05:07:35;;;;;;;383.98;64.30;;;0.80;99.90;;;;;;5048578;28;20399;-56
2022/12/02 05:10:02;;;;;;;301.42;56.15;;;0.70;99.90;;;;;;5048159;27;20055;-55
2022/12/02 05:12:28;;;;;;;279.88;59.08;;;0.70;99.90;;;;;;5047354;27;20472;-54
2022/12/02 05:14:53;;;;;;;252.52;55.65;;;0.70;99.90;;;;;;5048192;28;20037;-56
2022/12/02 05:17:19;;;;;;;207.38;50.92;;;0.60;99.90;;;;;;5035278;27;20420;-53
2022/12/02 05:19:45;;;;;;;249.82;53.70;;;0.60;99.90;;;;;;5048305;28;20116;-52
2022/12/02 05:22:11;;;;;;;289.83;59.15;;;0.60;99.90;;;;;;5048328;28;20058;-54
2022/12/02 05:24:36;;;;;;;204.65;55.75;;;0.60;99.90;;;;;;5030408;28;20059;-54
2022/12/02 05:27:02;;;;;;;204.20;53.33;;;0.60;99.90;;;;;;5034103;28;20036;-55
2022/12/02 05:29:28;;;;;;;240.40;56.47;;;0.70;99.90;;;;;;5047354;28;20029;-56
2022/12/02 05:31:53;;;;;;;286.00;57.40;;;0.70;99.90;;;;;;5046114;28;20040;-51
2022/12/02 05:34:19;;;;;;;350.92;63.88;;;0.60;99.90;;;;;;5043899;27;20032;-55
2022/12/02 05:36:45;;;;;;;175.52;51.13;;;0.60;99.90;;;;;;5040357;28;20017;-56
2022/12/02 05:39:11;;;;;;;190.35;55.92;;;0.60;99.90;;;;;;5048324;28;20017;-55
2022/12/02 05:41:37;;;;;;;182.57;53.88;;;0.60;99.90;;;;;;5030559;28;20021;-54
2022/12/02 05:44:23;;;;;;;229.73;54.78;;;0.70;99.90;;;;;;5031978;28;20037;-58
2022/12/02 05:46:49;;;;;;;174.35;53.42;;;0.70;99.90;;;;;;5031979;28;20166;-53
2022/12/02 05:49:21;;;;;;;250.75;54.88;;;0.70;99.90;;;;;;5031977;28;20025;-55
2022/12/02 05:51:54;;;;;;;293.52;58.80;;;0.60;99.90;;;;;;5033349;28;20082;-57
2022/12/02 05:54:20;;;;;;;232.02;57.80;;;0.60;99.90;;;;;;5051644;27;20033;-56
2022/12/02 05:56:47;;;;;;;308.20;60.28;;;0.60;99.90;;;;;;5050936;27;20082;-54
2022/12/02 05:59:18;;;;;;;247.10;59.33;;;0.60;99.90;;;;;;5050864;27;20025;-55
2022/12/02 06:01:52;;;;;;;191.18;54.38;;;0.60;99.90;;;;;;5047845;27;20037;-54
2022/12/02 06:04:27;;;;;;;280.00;61.80;;;0.60;99.90;;;;;;5048960;28;20021;-52
2022/12/02 06:06:54;;;;;;;198.10;56.60;;;0.60;99.90;;;;;;5050484;28;20372;-58
2022/12/02 06:09:24;;;;;;;263.83;57.15;;;0.60;99.90;;;;;;5050590;28;20017;-51
2022/12/02 06:11:51;;;;;;;222.95;57.55;;;0.60;99.90;;;;;;5050469;28;20025;-50
2022/12/02 06:14:20;;;;;;;254.93;59.17;;;0.50;99.90;;;;;;5049744;27;20108;-56
2022/12/02 06:16:52;;;;;;;217.57;54.50;;;0.50;99.90;;;;;;5051226;28;20017;-59
2022/12/02 06:19:47;;;;;;;234.13;53.23;;;0.50;99.90;;;;;;5039301;28;20037;-56
2022/12/02 06:22:18;;;;;;;214.07;52.22;;;0.50;99.90;;;;;;5031197;28;20567;-55
2022/12/02 06:24:44;;;;;;;173.63;54.08;;;0.50;99.90;;;;;;5040646;28;20021;-55
2022/12/02 06:27:13;;;;;;;236.93;57.97;;;0.50;99.90;;;;;;5051093;28;20055;-65
2022/12/02 06:29:46;;;;;;;210.50;53.95;;;0.50;99.90;;;;;;5051412;27;20029;-55
2022/12/02 06:32:16;;;;;;;179.40;50.70;;;0.50;99.90;;;;;;5051042;28;20044;-54
2022/12/02 06:34:43;;;;;;;195.27;54.78;;;0.50;99.90;;;;;;5051274;27;20036;-54
2022/12/02 06:37:24;;;;;;;253.07;57.45;;;0.50;99.90;;;;;;5083763;27;20140;-56
2022/12/02 06:39:54;;;;;;;195.68;52.03;;;0.50;99.90;;;;;;5062585;27;20107;-51
2022/12/02 06:42:32;;;;;;;237.85;54.45;;;0.50;99.90;;;;;;5050956;27;20025;-50
2022/12/02 06:45:11;;;;;;;201.15;51.72;;;0.40;99.90;;;;;;5050853;27;20170;-53
2022/12/02 06:47:46;;;;;;;328.75;59.28;;;0.50;99.90;;;;;;5050596;28;20033;-54
2022/12/02 06:50:31;;;;;;;275.73;54.90;;;0.50;99.90;;;;;;5050780;28;20029;-55
2022/12/02 06:53:36;;;;;;;273.45;57.90;;;0.40;99.90;;;;;;5050623;28;20052;-55
2022/12/02 06:56:13;;;;;;;181.68;49.83;;;0.40;99.90;;;;;;5040209;28;20029;-55
2022/12/02 06:58:45;;;;;;;238.13;56.42;;;0.40;99.90;;;;;;5049440;28;20025;-56
2022/12/02 07:01:29;;;;;;;254.90;53.63;;;0.40;99.90;;;;;;5049528;28;20471;-55
2022/12/02 07:04:29;;;;;;;166.23;51.90;;;0.50;99.90;;;;;;5049354;28;20107;-56
2022/12/02 07:07:00;;;;;;;238.65;55.88;;;0.50;99.90;;;;;;5033025;28;20113;-52
2022/12/02 07:09:29;;;;;;;137.38;50.67;;;0.50;99.90;;;;;;5049417;28;20467;-54
2022/12/02 07:11:57;;;;;;;202.60;50.65;;;0.50;99.90;;;;;;5049209;28;20032;-53
2022/12/02 07:14:28;;;;;;;138.02;48.35;;;0.50;99.90;;;;;;5049415;28;20076;-53
2022/12/02 07:16:57;;;;;;;146.02;49.42;;;0.50;99.90;;;;;;5049044;28;20024;-53
2022/12/02 07:19:34;;;;;;;173.52;49.60;;;0.50;99.90;;;;;;5043309;27;20455;-54
2022/12/02 07:21:59;;;;;;;204.43;47.65;;;0.50;99.90;;;;;;5045336;27;20025;-55
2022/12/02 07:24:27;;;;;;;166.80;51.75;;;0.40;99.90;;;;;;5049146;27;20021;-56
2022/12/02 07:26:52;;;;;;;135.77;48.33;;;0.40;99.90;;;;;;5045927;27;20027;-54
2022/12/02 07:29:30;;;;;;;155.43;52.03;;;0.50;99.90;;;;;;5049074;27;20446;-53
2022/12/02 07:31:56;;;;;;;135.95;48.35;;;0.50;99.90;;;;;;5046788;28;20483;-51
2022/12/02 07:34:22;;;;;;;137.48;51.45;;;0.50;99.90;;;;;;5039609;28;20331;-54
2022/12/02 07:36:47;;;;;;;143.95;51.88;;;0.60;99.90;;;;;;5029178;28;20026;-54
2022/12/02 07:39:13;;;;;;;144.45;49.28;;;0.60;99.90;;;;;;5028996;28;20025;-52
2022/12/02 07:41:39;;;;;;;133.30;50.97;;;0.60;99.90;;;;;;5027540;28;20021;-56
2022/12/02 07:44:05;;;;;;;144.20;52.78;;;0.60;99.90;;;;;;5027735;28;20028;-53
2022/12/02 07:46:31;;;;;;;140.10;52.30;;;0.60;99.90;;;;;;5029156;28;20109;-54
2022/12/02 07:48:56;;;;;;;127.55;50.13;;;0.60;99.90;;;;;;5034611;28;20451;-55
2022/12/02 07:51:22;;;;;;;124.07;44.20;;;0.60;99.90;;;;;;5048813;28;20033;-55
2022/12/02 07:53:48;;;;;;;115.90;47.28;;;0.60;99.90;;;;;;5048509;28;20108;-52
2022/12/02 07:56:13;;;;;;;138.57;46.25;;;0.60;99.90;;;;;;5045580;28;20021;-51
2022/12/02 07:58:39;;;;;;;119.60;45.47;;;0.60;99.90;;;;;;5038915;27;20017;-53
2022/12/02 08:01:05;;;;;;;109.68;42.25;;;0.60;99.90;;;;;;5045009;28;20377;-51
2022/12/02 08:03:30;;;;;;;127.75;46.70;;;0.60;99.90;;;;;;5040550;28;20537;-55
2022/12/02 08:05:56;;;;;;;160.30;48.20;;;0.60;99.90;;;;;;5027382;28;20430;-56
2022/12/02 08:08:21;;;;;;;138.02;44.72;;;0.60;99.90;;;;;;5027176;28;20576;-52
2022/12/02 08:10:47;;;;;;;152.43;47.67;;;0.60;99.90;;;;;;5027713;28;20049;-53
2022/12/02 08:13:13;;;;;;;128.35;50.90;;;0.60;99.90;;;;;;5028560;28;20128;-54
2022/12/02 08:15:38;;;;;;;141.57;50.63;;;0.60;99.90;;;;;;5028507;28;20104;-53
2022/12/02 08:18:04;;;;;;;138.77;49.25;;;0.60;99.90;;;;;;5028266;28;20028;-53
2022/12/02 08:20:31;;;;;;;117.95;49.55;;;0.60;99.90;;;;;;5028615;28;20237;-53
2022/12/02 08:22:57;;;;;;;135.65;47.15;;;0.70;99.90;;;;;;5028219;28;20021;-56
2022/12/02 08:25:23;;;;;;;154.88;49.75;;;0.70;99.90;;;;;;5028600;28;20025;-54
2022/12/02 08:27:48;;;;;;;149.70;51.72;;;0.70;99.90;;;;;;5028154;28;20040;-53
2022/12/02 08:30:16;;;;;;;153.90;52.95;;;0.60;99.90;;;;;;5029402;28;20476;-55
2022/12/02 08:32:41;;;;;;;158.40;55.60;;;0.60;99.90;;;;;;5028438;28;20034;-52
2022/12/02 08:35:07;;;;;;;165.43;54.28;;;0.60;99.90;;;;;;5028193;28;20357;-51
2022/12/02 08:37:33;;;;;;;161.63;52.72;;;0.60;99.90;;;;;;5028486;28;20045;-55
2022/12/02 08:39:59;;;;;;;131.82;49.85;;;0.60;99.90;;;;;;5028056;28;20110;-53
2022/12/02 08:42:24;;;;;;;130.00;49.20;;;0.70;99.90;;;;;;5028258;28;20361;-55
2022/12/02 08:44:50;;;;;;;138.18;51.17;;;0.70;99.90;;;;;;5027971;28;20025;-52
2022/12/02 08:47:16;;;;;;;125.53;50.95;;;0.70;99.90;;;;;;5033785;28;20024;-54
2022/12/02 08:49:41;;;;;;;149.77;51.10;;;0.70;99.90;;;;;;5048214;28;20124;-53
2022/12/02 08:52:07;;;;;;;120.57;48.95;;;0.70;99.90;;;;;;5046435;28;20078;-50
2022/12/02 08:54:33;;;;;;;120.75;48.53;;;0.70;99.90;;;;;;5047921;28;20029;-53
2022/12/02 08:56:59;;;;;;;115.28;47.20;;;0.80;99.90;;;;;;5047733;28;20050;-52
2022/12/02 08:59:26;;;;;;;123.65;47.60;;;0.90;99.90;;;;;;5038001;28;20082;-51
2022/12/02 09:01:52;;;;;;;118.22;50.80;;;0.80;99.90;;;;;;5027808;28;20025;-51
2022/12/02 09:04:18;;;;;;;109.70;45.08;;;0.90;99.90;;;;;;5028071;28;20108;-52
2022/12/02 09:06:44;;;;;;;100.32;47.00;;;0.90;99.90;;;;;;5027907;28;20524;-54
2022/12/02 09:09:09;;;;;;;106.53;46.10;;;0.90;99.90;;;;;;5027691;28;20491;-54
2022/12/02 09:11:35;;;;;;;122.70;49.90;;;0.90;99.90;;;;;;5027856;28;20150;-52
2022/12/02 09:14:01;;;;;;;112.78;47.55;;;0.80;99.90;;;;;;5027357;28;20038;-53
2022/12/02 09:16:26;;;;;;;117.00;46.60;;;0.90;99.90;;;;;;5026964;28;20079;-53
2022/12/02 09:18:54;;;;;;;111.57;48.30;;;0.90;99.90;;;;;;5027562;28;20056;-53
2022/12/02 09:21:20;;;;;;;104.93;45.95;;;0.90;99.90;;;;;;5027940;28;20433;-53
2022/12/02 09:23:46;;;;;;;102.18;46.83;;;0.90;99.90;;;;;;5027501;28;20079;-53
2022/12/02 09:26:12;;;;;;;110.93;53.30;;;0.90;99.90;;;;;;5027771;28;20422;-56
2022/12/02 09:28:37;;;;;;;112.47;50.92;;;1.00;99.90;;;;;;5033387;28;20021;-50
2022/12/02 09:31:03;;;;;;;121.50;60.13;;;1.00;99.90;;;;;;5045759;27;20029;-52
2022/12/02 09:33:28;;;;;;;181.02;96.43;;;1.00;99.90;;;;;;5047329;27;20471;-53
2022/12/02 09:35:54;;;;;;;159.88;89.93;;;1.00;99.90;;;;;;5047187;28;20036;-52
2022/12/02 09:38:20;;;;;;;238.80;120.43;;;1.10;99.90;;;;;;5047528;28;20023;-55
2022/12/02 09:40:45;;;;;;;145.20;71.80;;;1.30;99.90;;;;;;5047199;28;20021;-52
2022/12/02 09:43:11;;;;;;;169.57;90.45;;;1.30;99.90;;;;;;5047318;27;20056;-54
2022/12/02 09:45:37;;;;;;;100.28;52.65;;;1.30;99.90;;;;;;5036960;28;20021;-56
2022/12/02 09:48:03;;;;;;;95.50;49.00;;;1.30;99.90;;;;;;5027431;28;20040;-51
2022/12/02 09:50:28;;;;;;;85.53;45.63;;;1.20;99.90;;;;;;5027232;28;20187;-56
2022/12/02 09:53:00;;;;;;;98.85;49.70;;;1.20;99.90;;;;;;5027090;28;20022;-53
2022/12/02 09:55:25;;;;;;;92.05;45.85;;;1.30;99.90;;;;;;5027533;28;20018;-55
2022/12/02 09:57:51;;;;;;;85.30;40.90;;;1.30;99.90;;;;;;5026985;28;20430;-54
2022/12/02 10:00:20;;;;;;;88.15;40.80;;;1.30;99.90;;;;;;5042351;28;20118;-55
2022/12/02 10:02:48;;;;;;;84.40;42.70;;;1.30;99.90;;;;;;5046924;28;20119;-56
2022/12/02 10:05:25;;;;;;;98.22;45.38;;;1.30;99.90;;;;;;5047156;28;20025;-53
2022/12/02 10:07:53;;;;;;;87.88;42.03;;;1.40;99.90;;;;;;5047018;28;20025;-54
2022/12/02 10:10:25;;;;;;;74.15;36.80;;;1.30;99.90;;;;;;5046733;28;20046;-56
2022/12/02 10:12:52;;;;;;;80.50;40.65;;;1.40;99.90;;;;;;5046670;28;20468;-51
2022/12/02 10:15:22;;;;;;;74.35;36.42;;;1.30;99.90;;;;;;5029498;28;20397;-52
2022/12/02 10:17:48;;;;;;;81.70;39.42;;;1.30;99.90;;;;;;5026871;28;20029;-55
2022/12/02 10:20:18;;;;;;;81.22;39.05;;;1.30;99.90;;;;;;5027159;28;20480;-52
2022/12/02 10:23:14;;;;;;;76.05;38.00;;;1.30;99.90;;;;;;5027948;28;20040;-57
2022/12/02 10:26:05;;;;;;;78.65;39.13;;;1.30;99.90;;;;;;5025741;28;20465;-52
2022/12/02 10:28:34;;;;;;;75.50;37.70;;;1.30;99.90;;;;;;5028590;28;20032;-54
2022/12/02 10:31:18;;;;;;;72.80;37.33;;;1.40;99.90;;;;;;5048847;27;20035;-54
2022/12/02 10:34:06;;;;;;;;;;;1.50;99.90;;;;;;5050248;27;20025;-53
2022/12/02 10:36:36;;;;;;;77.40;36.92;;;1.60;99.90;;;;;;5055797;27;19905;-55
2022/12/02 10:39:23;;;;;;;68.47;37.30;;;1.50;99.90;;;;;;5049838;27;20021;-52
2022/12/02 10:42:03;;;;;;;77.22;39.47;;;1.40;99.90;;;;;;5049870;28;20024;-53
2022/12/02 10:44:35;;;;;;;73.22;37.90;;;1.40;99.90;;;;;;5038706;28;20538;-51
2022/12/02 10:47:19;;;;;;;74.50;36.30;;;1.30;99.90;;;;;;5029239;28;20405;-53
2022/12/02 10:49:51;;;;;;;78.57;40.00;;;1.30;99.90;;;;;;5029916;28;20013;-54
2022/12/02 10:52:21;;;;;;;73.03;36.60;;;1.30;99.90;;;;;;5030206;28;20162;-51
2022/12/02 10:54:49;;;;;;;72.80;38.63;;;1.40;99.90;;;;;;5029660;28;20017;-56
2022/12/02 10:57:24;;;;;;;71.32;37.70;;;1.30;99.90;;;;;;5030039;28;20017;-54
2022/12/02 10:59:51;;;;;;;83.35;40.42;;;1.20;99.90;;;;;;5044176;27;20387;-52
2022/12/02 11:03:02;;;;;;;83.10;42.40;;;1.20;99.90;;;;;;5048035;28;20036;-55
2022/12/02 11:05:31;;;;;;;82.40;42.05;;;1.20;99.90;;;;;;5044413;28;20034;-54
2022/12/02 11:07:58;;;;;;;70.43;37.75;;;1.10;99.90;;;;;;5030598;28;20025;-52
2022/12/02 11:10:32;;;;;;;81.50;41.63;;;1.10;99.90;;;;;;5029936;28;20095;-54
2022/12/02 11:13:23;;;;;;;87.00;41.15;;;1.20;99.90;;;;;;5030544;28;20040;-52
2022/12/02 11:15:51;;;;;;;86.15;41.65;;;1.10;99.90;;;;;;5021003;28;20033;-54
2022/12/02 11:18:29;;;;;;;85.43;42.45;;;1.10;99.90;;;;;;5037720;27;20080;-51
2022/12/02 11:21:02;;;;;;;77.30;38.65;;;1.10;99.90;;;;;;5049416;28;20025;-52
2022/12/02 11:23:29;;;;;;;82.93;39.75;;;1.10;99.90;;;;;;5049302;28;20081;-52
2022/12/02 11:26:05;;;;;;;79.68;40.50;;;1.10;99.90;;;;;;5047081;28;20400;-52
2022/12/02 11:28:34;;;;;;;77.90;38.78;;;1.10;99.90;;;;;;5042171;28;20025;-53
2022/12/02 11:31:24;;;;;;;84.55;42.17;;;1.20;99.90;;;;;;5035897;28;20029;-52
2022/12/02 11:33:54;;;;;;;77.95;38.05;;;1.20;99.90;;;;;;5029873;28;20038;-56
2022/12/02 11:36:21;;;;;;;81.93;40.67;;;1.20;99.90;;;;;;5032933;27;20403;-53
2022/12/02 11:38:50;;;;;;;79.03;40.42;;;1.20;99.90;;;;;;5047632;27;20074;-55
2022/12/02 11:41:23;;;;;;;79.80;40.33;;;1.20;99.90;;;;;;5053539;27;20021;-52
2022/12/02 11:44:08;;;;;;;155.23;76.78;;;1.20;99.90;;;;;;5154602;27;20023;-53
2022/12/02 11:46:48;;;;;;;88.65;44.63;;;1.20;99.90;;;;;;5154377;27;20463;-53
2022/12/02 11:49:30;;;;;;;78.70;40.40;;;1.20;99.90;;;;;;5155064;27;20480;-51
2022/12/02 11:52:19;;;;;;;108.00;50.45;;;1.30;99.90;;;;;;5130797;27;20013;-53
2022/12/02 11:54:49;;;;;;;103.85;53.88;;;1.30;99.90;;;;;;5049856;28;20037;-52
2022/12/02 11:57:46;;;;;;;83.70;42.63;;;1.20;99.90;;;;;;5050192;27;20032;-55
2022/12/02 12:00:26;;;;;;;74.97;38.08;;;1.30;99.90;;;;;;5045909;28;20040;-54
2022/12/02 12:03:07;;;;;;;77.35;39.72;;;1.20;99.90;;;;;;5048926;27;20037;-55
2022/12/02 12:05:33;;;;;;;78.10;39.63;;;1.20;99.90;;;;;;5048675;28;20065;-53
2022/12/02 12:07:58;;;;;;;75.93;37.25;;;1.30;99.90;;;;;;5046528;27;20028;-54
2022/12/02 12:10:38;;;;;;;76.60;39.65;;;1.30;99.90;;;;;;5048522;27;20048;-52
2022/12/02 12:13:16;;;;;;;85.18;40.45;;;1.30;99.90;;;;;;5048394;27;20076;-54
2022/12/02 12:15:54;;;;;;;80.78;39.13;;;1.30;99.90;;;;;;5042695;28;20018;-50
2022/12/02 12:18:38;;;;;;;73.55;38.38;;;1.20;99.90;;;;;;5046344;27;20496;-54
2022/12/02 12:21:05;;;;;;;78.00;41.10;;;1.20;99.90;;;;;;5037345;28;20044;-56
2022/12/02 12:23:43;;;;;;;75.45;38.03;;;1.30;99.90;;;;;;5041636;27;20116;-53
2022/12/02 12:26:29;;;;;;;75.93;38.38;;;1.20;99.90;;;;;;5029594;28;20044;-52
2022/12/02 12:28:55;;;;;;;77.43;40.58;;;1.20;99.90;;;;;;5029379;28;20071;-57
2022/12/02 12:31:20;;;;;;;93.40;47.65;;;1.20;99.90;;;;;;5030748;28;20120;-53
2022/12/02 12:33:46;;;;;;;80.43;43.63;;;1.20;99.90;;;;;;5035734;27;20057;-53
2022/12/02 12:36:12;;;;;;;77.65;41.67;;;1.20;99.90;;;;;;5035505;28;20260;-58
2022/12/02 12:38:37;;;;;;;76.65;40.70;;;1.30;99.90;;;;;;5017835;28;20528;-56
2022/12/02 12:41:03;;;;;;;99.55;48.38;;;1.30;99.90;;;;;;5035398;28;20035;-55